createdAt,value
2022-11-24T00:01:15.695Z,6.58
2022-11-24T00:03:43.707Z,6.57
2022-11-24T00:06:15.211Z,6.56
2022-11-24T00:08:45.901Z,6.56
2022-11-24T00:11:15.302Z,6.56
2022-11-24T00:13:42.275Z,6.55
2022-11-24T00:16:17.951Z,6.53
2022-11-24T00:18:51.754Z,6.51
2022-11-24T00:21:19.709Z,6.49
2022-11-24T00:23:47.438Z,6.47
2022-11-24T00:26:15.387Z,6.44
2022-11-24T00:28:43.749Z,6.45
2022-11-24T00:31:30.676Z,6.45
2022-11-24T00:34:00.017Z,6.45
2022-11-24T00:36:30.031Z,6.44
2022-11-24T00:38:58.776Z,6.43
2022-11-24T00:41:30.134Z,6.43
2022-11-24T00:43:56.853Z,6.40
2022-11-24T00:46:25.578Z,6.39
2022-11-24T00:48:53.781Z,6.37
2022-11-24T00:51:22.837Z,6.35
2022-11-24T00:53:49.505Z,6.35
2022-11-24T00:56:16.335Z,6.34
2022-11-24T00:58:42.857Z,6.32
2022-11-24T01:01:13.221Z,6.29
2022-11-24T01:03:39.885Z,6.28
2022-11-24T01:06:21.631Z,6.25
2022-11-24T01:08:48.563Z,6.23
2022-11-24T01:11:23.330Z,6.21
2022-11-24T01:13:54.424Z,6.17
2022-11-24T01:16:22.811Z,6.13
2022-11-24T01:18:49.742Z,6.10
2022-11-24T01:21:17.228Z,6.06
2022-11-24T01:23:44.243Z,6.04
2022-11-24T01:26:13.093Z,6.01
2022-11-24T01:28:44.851Z,6.00
2022-11-24T01:31:14.263Z,6.00
2022-11-24T01:33:40.934Z,6.00
2022-11-24T01:36:07.606Z,6.02
2022-11-24T01:38:34.138Z,6.04
2022-11-24T01:41:24.157Z,6.08
2022-11-24T01:43:52.302Z,6.11
2022-11-24T01:46:24.190Z,6.12
2022-11-24T01:49:32.631Z,6.13
2022-11-24T01:52:06.794Z,6.13
2022-11-24T01:54:37.749Z,6.15
2022-11-24T01:57:13.978Z,6.14
2022-11-24T01:59:40.862Z,6.12
2022-11-24T02:02:08.229Z,6.12
2022-11-24T02:04:36.077Z,6.12
2022-11-24T02:07:05.771Z,6.13
2022-11-24T02:10:00.957Z,6.16
2022-11-24T02:12:28.558Z,6.19
2022-11-24T02:14:56.218Z,6.24
2022-11-24T02:17:24.459Z,6.30
2022-11-24T02:20:20.345Z,6.36
2022-11-24T02:22:55.106Z,6.44
2022-11-24T02:25:31.200Z,6.49
2022-11-24T02:28:00.669Z,6.53
2022-11-24T02:30:27.543Z,6.58
2022-11-24T02:32:54.354Z,6.63
2022-11-24T02:35:22.387Z,6.65
2022-11-24T02:37:49.149Z,6.68
2022-11-24T02:40:24.940Z,6.70
2022-11-24T02:42:58.838Z,6.71
2022-11-24T02:45:26.670Z,6.71
2022-11-24T02:47:53.167Z,6.72
2022-11-24T02:50:19.747Z,6.73
2022-11-24T02:52:46.234Z,6.73
2022-11-24T02:55:12.770Z,6.74
2022-11-24T02:57:39.286Z,6.72
2022-11-24T03:00:06.316Z,6.72
2022-11-24T03:02:35.811Z,6.73
2022-11-24T03:05:02.340Z,6.74
2022-11-24T03:07:29.011Z,6.76
2022-11-24T03:09:55.551Z,6.78
2022-11-24T03:12:22.120Z,6.83
2022-11-24T03:14:48.627Z,6.86
2022-11-24T03:17:18.015Z,6.87
2022-11-24T03:19:44.528Z,6.90
2022-11-24T03:22:13.005Z,6.92
2022-11-24T03:24:39.634Z,6.94
2022-11-24T03:27:06.334Z,6.96
2022-11-24T03:29:32.868Z,6.98
2022-11-24T03:31:59.556Z,7.00
2022-11-24T03:34:26.266Z,7.02
2022-11-24T03:36:52.740Z,7.02
2022-11-24T03:39:19.274Z,7.04
2022-11-24T03:41:45.857Z,7.05
2022-11-24T03:44:12.367Z,7.06
2022-11-24T03:46:38.990Z,7.06
2022-11-24T03:49:05.670Z,7.09
2022-11-24T03:51:32.144Z,7.12
2022-11-24T03:53:58.600Z,7.13
2022-11-24T03:56:25.110Z,7.12
2022-11-24T03:58:51.890Z,7.13
2022-11-24T04:01:18.590Z,7.14
2022-11-24T04:03:45.166Z,7.15
2022-11-24T04:06:11.811Z,7.17
2022-11-24T04:08:38.480Z,7.20
2022-11-24T04:11:08.278Z,7.22
2022-11-24T04:13:34.772Z,7.25
2022-11-24T04:16:06.228Z,7.28
2022-11-24T04:18:32.751Z,7.29
2022-11-24T04:20:59.387Z,7.30
2022-11-24T04:23:25.865Z,7.32
2022-11-24T04:25:52.346Z,7.34
2022-11-24T04:28:18.833Z,7.37
2022-11-24T04:30:45.488Z,7.38
2022-11-24T04:33:15.575Z,7.39
2022-11-24T04:35:42.152Z,7.38
2022-11-24T04:38:08.863Z,7.38
2022-11-24T04:40:35.604Z,7.34
2022-11-24T04:43:02.099Z,7.32
2022-11-24T04:45:28.654Z,7.30
2022-11-24T04:47:55.129Z,7.31
2022-11-24T04:50:21.984Z,7.33
2022-11-24T04:52:48.481Z,7.34
2022-11-24T04:55:15.037Z,7.34
2022-11-24T04:57:41.631Z,7.35
2022-11-24T05:00:12.040Z,7.37
2022-11-24T05:02:38.776Z,7.38
2022-11-24T05:05:08.298Z,7.39
2022-11-24T05:07:35.135Z,7.40
2022-11-24T05:10:20.178Z,7.40
2022-11-24T05:12:54.699Z,7.38
2022-11-24T05:15:21.098Z,7.33
2022-11-24T05:17:47.526Z,7.29
2022-11-24T05:20:14.063Z,7.25
2022-11-24T05:22:40.483Z,7.18
2022-11-24T05:25:07.169Z,7.10
2022-11-24T05:27:33.572Z,7.04
2022-11-24T05:30:00.021Z,6.97
2022-11-24T05:32:26.622Z,6.92
2022-11-24T05:34:53.859Z,6.87
2022-11-24T05:37:21.534Z,6.82
2022-11-24T05:39:48.030Z,6.75
2022-11-24T05:42:33.086Z,6.70
2022-11-24T05:44:59.756Z,6.69
2022-11-24T05:47:26.431Z,6.68
2022-11-24T05:49:52.869Z,6.67
2022-11-24T05:52:19.305Z,6.67
2022-11-24T05:54:45.782Z,6.65
2022-11-24T05:57:13.148Z,6.67
2022-11-24T05:59:39.590Z,6.69
2022-11-24T06:02:06.070Z,6.71
2022-11-24T06:04:33.129Z,6.73
2022-11-24T06:06:59.940Z,6.73
2022-11-24T06:09:26.944Z,6.75
2022-11-24T06:11:53.423Z,6.75
2022-11-24T06:14:19.893Z,6.75
2022-11-24T06:16:47.152Z,6.74
2022-11-24T06:19:13.661Z,6.74
2022-11-24T06:21:43.055Z,6.75
2022-11-24T06:24:09.534Z,6.74
2022-11-24T06:26:38.063Z,6.72
2022-11-24T06:29:04.567Z,6.70
2022-11-24T06:31:31.284Z,6.67
2022-11-24T06:34:01.125Z,6.65
2022-11-24T06:36:27.770Z,6.61
2022-11-24T06:38:54.603Z,6.57
2022-11-24T06:41:21.000Z,6.53
2022-11-24T06:43:47.934Z,6.48
2022-11-24T06:46:14.400Z,6.42
2022-11-24T06:48:40.795Z,6.38
2022-11-24T06:51:10.392Z,6.37
2022-11-24T06:53:40.601Z,6.37
2022-11-24T06:56:15.600Z,6.38
2022-11-24T06:58:45.711Z,6.39
2022-11-24T07:01:20.313Z,6.41
2022-11-24T07:03:48.201Z,6.41
2022-11-24T07:06:16.251Z,6.40
2022-11-24T07:08:42.898Z,6.41
2022-11-24T07:11:15.440Z,6.42
2022-11-24T07:13:43.347Z,6.43
2022-11-24T07:16:21.539Z,6.43
2022-11-24T07:18:49.858Z,6.44
2022-11-24T07:21:16.426Z,6.44
2022-11-24T07:23:43.094Z,6.43
2022-11-24T07:26:10.838Z,6.41
2022-11-24T07:28:37.803Z,6.39
2022-11-24T07:31:13.324Z,6.37
2022-11-24T07:33:40.340Z,6.36
2022-11-24T07:36:08.165Z,6.36
2022-11-24T07:38:35.556Z,6.37
2022-11-24T07:41:07.173Z,6.40
2022-11-24T07:43:35.533Z,6.42
2022-11-24T07:46:02.422Z,6.43
2022-11-24T07:48:28.868Z,6.44
2022-11-24T07:50:56.405Z,6.48
2022-11-24T07:53:23.092Z,6.50
2022-11-24T07:55:58.117Z,6.54
2022-11-24T07:58:27.668Z,6.58
2022-11-24T08:00:57.841Z,6.61
2022-11-24T08:03:25.363Z,6.65
2022-11-24T08:06:22.402Z,6.70
2022-11-24T08:08:42.741Z,6.76
2022-11-24T08:11:12.092Z,6.83
2022-11-24T08:13:39.497Z,6.92
2022-11-24T08:16:08.307Z,7.01
2022-11-24T08:18:36.237Z,7.11
2022-11-24T08:21:06.865Z,7.24
2022-11-24T08:23:33.855Z,7.33
2022-11-24T08:26:08.989Z,7.43
2022-11-24T08:28:35.954Z,7.50
2022-11-24T08:31:07.779Z,7.57
2022-11-24T08:33:34.568Z,7.64
2022-11-24T08:36:06.816Z,7.70
2022-11-24T08:38:33.373Z,7.77
2022-11-24T08:41:04.948Z,7.84
2022-11-24T08:43:31.826Z,7.90
2022-11-24T08:46:13.868Z,7.94
2022-11-24T08:48:41.444Z,8.00
2022-11-24T08:51:10.894Z,8.06
2022-11-24T08:53:37.614Z,8.13
2022-11-24T08:56:04.862Z,8.17
2022-11-24T08:58:31.992Z,8.21
2022-11-24T09:01:07.412Z,8.26
2022-11-24T09:03:34.559Z,8.32
2022-11-24T09:06:02.367Z,8.39
2022-11-24T09:08:32.529Z,8.48
2022-11-24T09:11:00.716Z,8.54
2022-11-24T09:13:27.116Z,8.55
2022-11-24T09:15:53.638Z,8.57
2022-11-24T09:18:20.000Z,8.57
2022-11-24T09:20:46.370Z,8.61
2022-11-24T09:23:12.941Z,8.66
2022-11-24T09:25:39.290Z,8.70
2022-11-24T09:28:05.701Z,8.73
2022-11-24T09:30:32.221Z,8.79
2022-11-24T09:32:58.710Z,8.86
2022-11-24T09:35:25.125Z,8.93
2022-11-24T09:37:51.618Z,9.00
2022-11-24T09:40:18.301Z,9.05
2022-11-24T09:42:59.355Z,9.10
2022-11-24T09:46:04.078Z,9.22
2022-11-24T09:48:36.072Z,9.32
2022-11-24T09:51:04.303Z,9.40
2022-11-24T09:53:30.690Z,9.46
2022-11-24T09:56:02.314Z,9.49
2022-11-24T09:58:50.624Z,9.54
2022-11-24T10:01:20.151Z,9.63
2022-11-24T10:03:54.314Z,9.66
2022-11-24T10:06:38.015Z,9.68
2022-11-24T10:09:15.434Z,9.73
2022-11-24T10:12:15.891Z,9.85
2022-11-24T10:15:10.877Z,9.97
2022-11-24T10:18:23.761Z,10.06
2022-11-24T10:21:23.965Z,10.20
2022-11-24T10:24:09.061Z,10.33
2022-11-24T10:26:44.156Z,10.37
2022-11-24T10:29:20.273Z,10.41
2022-11-24T10:31:52.179Z,10.43
2022-11-24T10:34:25.112Z,10.48
2022-11-24T10:37:06.930Z,10.56
2022-11-24T10:39:50.519Z,10.56
2022-11-24T10:42:37.741Z,10.58
2022-11-24T10:45:16.457Z,10.63
2022-11-24T10:47:44.042Z,10.64
2022-11-24T10:50:27.032Z,10.61
2022-11-24T10:53:08.310Z,10.68
2022-11-24T10:55:56.648Z,10.70
2022-11-24T10:58:37.084Z,10.69
2022-11-24T11:01:13.664Z,10.76
2022-11-24T11:03:48.869Z,10.93
2022-11-24T11:06:23.221Z,11.02
2022-11-24T11:08:50.445Z,11.07
2022-11-24T11:11:29.059Z,11.24
2022-11-24T11:14:04.448Z,11.47
2022-11-24T11:16:43.463Z,11.81
2022-11-24T11:19:56.969Z,12.22
2022-11-24T11:22:28.923Z,12.75
2022-11-24T11:25:17.262Z,13.06
2022-11-24T11:27:44.561Z,13.32
2022-11-24T11:36:13.412Z,13.91
2022-11-24T11:38:41.435Z,14.14
2022-11-24T11:41:19.187Z,14.35
2022-11-24T11:43:49.879Z,14.74
2022-11-24T11:46:17.009Z,14.96
2022-11-24T11:48:46.622Z,14.64
2022-11-24T11:51:30.765Z,14.23
2022-11-24T11:54:25.273Z,13.80
2022-11-24T11:57:06.884Z,13.43
2022-11-24T11:59:54.982Z,13.08
2022-11-24T12:02:56.768Z,12.78
2022-11-24T12:05:52.615Z,12.48
2022-11-24T12:09:03.172Z,12.24
2022-11-24T12:11:40.314Z,12.02
2022-11-24T12:14:44.569Z,11.88
2022-11-24T12:17:23.020Z,11.92
2022-11-24T12:19:57.308Z,11.93
2022-11-24T12:22:29.019Z,11.90
2022-11-24T12:25:11.121Z,11.81
2022-11-24T12:27:49.544Z,11.70
2022-11-24T12:30:18.818Z,11.65
2022-11-24T12:33:16.954Z,11.60
2022-11-24T12:35:46.489Z,11.59
2022-11-24T12:38:31.260Z,11.61
2022-11-24T12:41:41.024Z,11.62
2022-11-24T12:44:27.581Z,11.59
2022-11-24T12:47:10.903Z,11.58
2022-11-24T12:50:00.196Z,11.62
2022-11-24T12:52:31.932Z,11.61
2022-11-24T12:54:59.674Z,11.55
2022-11-24T12:57:42.337Z,11.47
2022-11-24T13:00:38.136Z,11.39
2022-11-24T13:03:21.182Z,11.32
2022-11-24T13:05:50.601Z,11.32
2022-11-24T13:08:17.213Z,11.35
2022-11-24T13:10:55.913Z,11.36
2022-11-24T13:13:27.361Z,11.34
2022-11-24T13:17:06.244Z,11.34
2022-11-24T13:18:45.014Z,11.33
2022-11-24T13:21:50.326Z,11.27
2022-11-24T13:24:16.985Z,11.18
2022-11-24T13:27:15.212Z,11.08
2022-11-24T13:29:44.330Z,10.98
2022-11-24T13:32:19.939Z,10.94
2022-11-24T13:34:54.650Z,10.83
2022-11-24T13:37:35.330Z,10.74
2022-11-24T13:40:11.242Z,10.69
2022-11-24T13:43:07.597Z,10.66
2022-11-24T13:45:40.565Z,10.68
2022-11-24T13:48:33.622Z,10.65
2022-11-24T13:51:01.422Z,10.64
2022-11-24T13:53:36.844Z,10.58
2022-11-24T13:56:06.216Z,10.50
2022-11-24T13:58:42.119Z,10.44
2022-11-24T14:01:20.255Z,10.39
2022-11-24T14:04:28.222Z,10.30
2022-11-24T14:06:46.219Z,10.21
2022-11-24T14:09:22.703Z,10.19
2022-11-24T14:12:00.686Z,10.16
2022-11-24T14:14:27.523Z,10.09
2022-11-24T14:17:15.435Z,10.04
2022-11-24T14:19:43.771Z,10.01
2022-11-24T14:22:22.800Z,10.01
2022-11-24T14:24:55.140Z,9.99
2022-11-24T14:27:34.035Z,9.96
2022-11-24T14:30:16.683Z,9.93
2022-11-24T14:32:57.210Z,9.89
2022-11-24T14:35:31.255Z,9.88
2022-11-24T14:37:58.900Z,9.87
2022-11-24T14:40:41.268Z,9.87
2022-11-24T14:43:28.735Z,9.88
2022-11-24T14:46:05.910Z,10.06
2022-11-24T14:48:46.208Z,10.26
2022-11-24T14:51:24.946Z,10.19
2022-11-24T14:53:55.542Z,10.08
2022-11-24T14:56:36.766Z,10.02
2022-11-24T14:59:04.017Z,9.94
2022-11-24T15:01:33.692Z,9.90
2022-11-24T15:04:17.912Z,9.87
2022-11-24T15:07:06.735Z,9.87
2022-11-24T15:09:41.089Z,9.87
2022-11-24T15:12:18.128Z,9.85
2022-11-24T15:14:54.491Z,9.83
2022-11-24T15:17:27.589Z,9.77
2022-11-24T15:20:09.227Z,9.69
2022-11-24T15:22:41.567Z,9.62
2022-11-24T15:25:25.032Z,9.57
2022-11-24T15:27:52.006Z,9.54
2022-11-24T15:30:18.472Z,9.53
2022-11-24T15:32:53.113Z,9.53
2022-11-24T15:35:21.342Z,9.52
2022-11-24T15:37:47.765Z,9.51
2022-11-24T15:40:14.561Z,9.50
2022-11-24T15:42:41.166Z,9.50
2022-11-24T15:45:07.933Z,9.47
2022-11-24T15:47:49.866Z,9.44
2022-11-24T15:50:16.972Z,9.41
2022-11-24T15:52:44.378Z,9.38
2022-11-24T15:55:22.335Z,9.34
2022-11-24T15:57:49.407Z,9.28
2022-11-24T16:00:21.658Z,9.23
2022-11-24T16:02:48.963Z,9.17
2022-11-24T16:05:17.297Z,9.11
2022-11-24T16:07:44.374Z,9.04
2022-11-24T16:10:28.937Z,8.96
2022-11-24T16:12:55.378Z,8.86
2022-11-24T16:15:21.761Z,8.79
2022-11-24T16:17:48.413Z,8.74
2022-11-24T16:20:15.452Z,8.70
2022-11-24T16:22:42.024Z,8.64
2022-11-24T16:25:09.049Z,8.58
2022-11-24T16:27:35.590Z,8.54
2022-11-24T16:30:02.184Z,8.54
2022-11-24T16:32:28.679Z,8.54
2022-11-24T16:34:55.298Z,8.54
2022-11-24T16:37:22.300Z,8.54
2022-11-24T16:39:50.377Z,8.55
2022-11-24T16:42:17.452Z,8.56
2022-11-24T16:44:43.935Z,8.58
2022-11-24T16:47:12.638Z,8.60
2022-11-24T16:49:39.395Z,8.62
2022-11-24T16:52:05.770Z,8.64
2022-11-24T16:54:32.583Z,8.66
2022-11-24T16:56:59.451Z,8.69
2022-11-24T16:59:26.110Z,8.69
2022-11-24T17:01:52.623Z,8.70
2022-11-24T17:04:19.191Z,8.71
2022-11-24T17:06:45.621Z,8.72
2022-11-24T17:09:12.300Z,8.72
2022-11-24T17:11:38.752Z,8.71
2022-11-24T17:14:06.002Z,8.69
2022-11-24T17:16:32.487Z,8.68
2022-11-24T17:18:59.725Z,8.67
2022-11-24T17:21:27.704Z,8.66
2022-11-24T17:23:59.516Z,8.65
2022-11-24T17:26:27.043Z,8.64
2022-11-24T17:28:54.454Z,8.63
2022-11-24T17:31:29.446Z,8.61
2022-11-24T17:33:57.514Z,8.58
2022-11-24T17:36:24.343Z,8.58
2022-11-24T17:38:51.043Z,8.58
2022-11-24T17:41:19.155Z,8.57
2022-11-24T17:43:53.838Z,8.57
2022-11-24T17:46:20.355Z,8.56
2022-11-24T17:48:47.244Z,8.56
2022-11-24T17:51:19.544Z,8.58
2022-11-24T17:53:49.258Z,8.58
2022-11-24T17:56:17.918Z,8.56
2022-11-24T17:58:44.601Z,8.54
2022-11-24T18:01:12.779Z,8.52
2022-11-24T18:03:40.127Z,8.53
2022-11-24T18:06:13.665Z,8.53
2022-11-24T18:08:43.202Z,8.51
2022-11-24T18:11:12.856Z,8.50
2022-11-24T18:13:59.857Z,8.49
2022-11-24T18:16:28.109Z,8.47
2022-11-24T18:19:07.700Z,8.47
2022-11-24T18:21:35.571Z,8.46
2022-11-24T18:24:01.962Z,8.46
2022-11-24T18:26:28.696Z,8.45
2022-11-24T18:28:55.179Z,8.44
2022-11-24T18:31:22.378Z,8.42
2022-11-24T18:33:49.319Z,8.38
2022-11-24T18:36:18.462Z,8.35
2022-11-24T18:38:45.123Z,8.30
2022-11-24T18:41:13.643Z,8.26
2022-11-24T18:43:41.554Z,8.20
2022-11-24T18:46:11.910Z,8.14
2022-11-24T18:48:38.773Z,8.09
2022-11-24T18:51:05.666Z,8.01
2022-11-24T18:53:32.069Z,7.95
2022-11-24T18:55:59.410Z,7.87
2022-11-24T18:58:29.755Z,7.80
2022-11-24T19:01:09.204Z,7.73
2022-11-24T19:03:48.564Z,7.67
2022-11-24T19:06:24.690Z,7.64
2022-11-24T19:08:54.244Z,7.61
2022-11-24T19:11:28.132Z,7.58
2022-11-24T19:13:56.624Z,7.57
2022-11-24T19:16:24.424Z,7.57
2022-11-24T19:18:54.128Z,7.58
2022-11-24T19:21:22.368Z,7.55
2022-11-24T19:23:49.410Z,7.49
2022-11-24T19:26:15.936Z,7.43
2022-11-24T19:28:42.440Z,7.36
2022-11-24T19:31:13.642Z,7.27
2022-11-24T19:33:40.406Z,7.17
2022-11-24T19:36:11.706Z,7.06
2022-11-24T19:38:38.599Z,6.95
2022-11-24T19:41:13.803Z,6.85
2022-11-24T19:43:40.910Z,6.76
2022-11-24T19:46:08.364Z,6.68
2022-11-24T19:48:43.266Z,6.60
2022-11-24T19:51:30.752Z,6.51
2022-11-24T19:53:57.587Z,6.41
2022-11-24T19:56:26.035Z,6.34
2022-11-24T19:58:54.119Z,6.27
2022-11-24T20:01:32.030Z,6.20
2022-11-24T20:04:01.125Z,6.11
2022-11-24T20:06:29.571Z,6.03
2022-11-24T20:08:57.845Z,5.95
2022-11-24T20:11:24.508Z,5.90
2022-11-24T20:13:51.723Z,5.85
2022-11-24T20:16:26.494Z,5.83
2022-11-24T20:18:55.058Z,5.79
2022-11-24T20:21:24.231Z,5.77
2022-11-24T20:24:13.489Z,5.73
2022-11-24T20:26:51.628Z,5.69
2022-11-24T20:29:20.076Z,5.65
2022-11-24T20:31:49.353Z,5.61
2022-11-24T20:34:16.607Z,5.57
2022-11-24T20:36:44.790Z,5.53
2022-11-24T20:39:21.192Z,5.47
2022-11-24T20:41:47.916Z,5.42
2022-11-24T20:44:16.356Z,5.37
2022-11-24T20:46:44.282Z,5.32
2022-11-24T20:49:18.093Z,5.26
2022-11-24T20:51:47.178Z,5.21
2022-11-24T20:54:14.945Z,5.15
2022-11-24T20:56:43.738Z,5.10
2022-11-24T20:59:16.418Z,5.06
2022-11-24T21:01:45.661Z,5.01
2022-11-24T21:04:15.790Z,4.97
2022-11-24T21:06:42.607Z,4.93
2022-11-24T21:09:10.660Z,4.88
2022-11-24T21:11:38.431Z,4.83
2022-11-24T21:14:06.585Z,4.79
2022-11-24T21:16:35.009Z,4.76
2022-11-24T21:19:05.738Z,4.72
2022-11-24T21:21:35.136Z,4.68
2022-11-24T21:24:03.894Z,4.65
2022-11-24T21:26:30.326Z,4.61
2022-11-24T21:28:57.671Z,4.57
2022-11-24T21:31:24.357Z,4.53
2022-11-24T21:33:52.728Z,4.49
2022-11-24T21:36:22.290Z,4.45
2022-11-24T21:38:57.303Z,4.42
2022-11-24T21:41:26.236Z,4.37
2022-11-24T21:43:55.431Z,4.34
2022-11-24T21:46:22.639Z,4.30
2022-11-24T21:48:49.284Z,4.26
2022-11-24T21:51:18.209Z,4.22
2022-11-24T21:53:45.668Z,4.20
2022-11-24T21:56:15.338Z,4.18
2022-11-24T21:58:56.007Z,4.16
2022-11-24T22:01:25.966Z,4.14
2022-11-24T22:03:52.527Z,4.09
2022-11-24T22:06:20.184Z,4.06
2022-11-24T22:08:48.327Z,4.02
2022-11-24T22:11:15.812Z,3.99
2022-11-24T22:13:43.186Z,3.94
2022-11-24T22:16:12.357Z,3.91
2022-11-24T22:18:41.921Z,3.87
2022-11-24T22:21:23.791Z,3.83
2022-11-24T22:23:51.994Z,3.79
2022-11-24T22:26:21.178Z,3.75
2022-11-24T22:28:48.208Z,3.71
2022-11-24T22:31:16.433Z,3.68
2022-11-24T22:33:46.288Z,3.64
2022-11-24T22:36:14.684Z,3.60
2022-11-24T22:38:41.286Z,3.56
2022-11-24T22:41:13.734Z,3.54
2022-11-24T22:43:41.858Z,3.51
2022-11-24T22:46:16.846Z,3.48
2022-11-24T22:48:45.060Z,3.45
2022-11-24T22:51:13.808Z,3.42
2022-11-24T22:53:40.768Z,3.40
2022-11-24T22:56:10.911Z,3.38
2022-11-24T22:58:38.439Z,3.37
2022-11-24T23:01:13.863Z,3.35
2022-11-24T23:03:41.030Z,3.31
2022-11-24T23:06:14.437Z,3.28
2022-11-24T23:08:41.725Z,3.27
2022-11-24T23:11:12.664Z,3.25
2022-11-24T23:13:39.601Z,3.22
2022-11-24T23:16:11.347Z,3.19
2022-11-24T23:18:38.590Z,3.15
2022-11-24T23:21:17.052Z,3.12
2022-11-24T23:23:44.406Z,3.10
2022-11-24T23:26:13.838Z,3.09
2022-11-24T23:28:40.848Z,3.08
2022-11-24T23:31:12.760Z,3.09
2022-11-24T23:33:39.716Z,3.08
2022-11-24T23:36:11.821Z,3.08
2022-11-24T23:38:38.835Z,3.08
2022-11-24T23:41:07.912Z,3.07
2022-11-24T23:43:35.238Z,3.07
2022-11-24T23:46:14.848Z,3.07
2022-11-24T23:48:41.417Z,3.07
2022-11-24T23:51:12.350Z,3.06
2022-11-24T23:53:39.209Z,3.05
2022-11-24T23:56:06.242Z,3.04
2022-11-24T23:58:33.615Z,3.04
